Terminal Aerodrome Forecast
Issued by NWS

Home | Current Version | Previous Version | Text Only | Print | Product List | Glossary On
Versions: 1 2 3 4 5 6 7 8 9 10 11 12 13 14 15 16 17 18 19 20 21 22 23 24 25 26 27 28 29 30 31 32
000
FTUS45 KPSR 042320
TAFPHX
TAF
KPHX 042320Z 0500/0524 25012G20KT P6SM FEW100 SCT140 BKN250
     FM050400 24014KT P6SM VCTS SCT080CB BKN120 BKN200
     FM050700 21010KT P6SM VCSH BKN080 BKN120 OVC200
     FM051100 12007KT P6SM FEW080 BKN140 BKN250
     FM052000 23010KT P6SM SCT150 BKN250=

USA.gov is the U.S. government's official web portal to all federal, state and local government web resources and services.